Aérodrome :
LOGIN :

S'inscrire | Disclaimer

   EN    FR    IT 

 










Légende :    VFR   VFR Marginal   IFR   IFR Intensif   IFR Très Intensif
Visi : 
Plafond : 
>= 8 km
>= 3000ft
5 à 8 km
1000 à 3000 ft
1500m à 5 km
500 à 1000 ft
800 à 1500m
200 à 500 ft
< 800m
< 200 ft
Symboles :   Orages  Brouillard  Fortes neiges  Fortes précipitations  Vent > 20 kt
SIGMETs :   Divers  Orages  Givrage  Turbulence  Onde Orograph.  Cendres Volcan.







- Altitude de l'aérodrome : 42 ft
- Code IATA : CAL
- Voir les cartes d'approche


EGEC - Campbeltown

DERNIER METAR :
  • 221150Z 09006KT 9999 FEW020 BKN042 15/09 Q1023

METARs EXPIRÉS :
  • 221120Z 13007KT 9999 BKN045 14/08 Q1023
  • 221050Z 10008KT 9999 BKN045 15/09 Q1023
  • 221020Z 08010KT 9999 BKN044 14/08 Q1023
  • 220950Z 09009KT 9999 BKN044 13/08 Q1023
  • 220920Z 09010KT 9999 FEW021 BKN048 12/07 Q1023

TAF TAF EGEC
Valide du 22 à 12h jusqu'au 22 à 17h UTC


221100Z 2212/2217 08010KT 9999 SCT045
BECMG 2214/2217 VRB04KT
Pas de NOTAMs connus pour ce terrain.



MET'MAP, la Météo Aéronautique d'un coup d'oeil ! - Copyright ORBIFLY Décembre 2007 - Disclaimer

ORBIFLY MET'MAP TEAM :

Programmation & Développement : Alexandra Zaïnal
Conception & Développement : Baudouin d'Aumeries
Co-Programmation & Développement : Marc-Olivier Méhu
Soutien technique & logistique : Manuel Goepfert

Contact : metmap@orbifly.com




SOURCES & CREDITS :

   NOAA